Pagrindinis puslapis
METAR-TAF:

METAR-TAF

Oro uostai :

Kasane, Botsvana

platuma: 17-49S, ilguma: 025-09E, Aukštis: 968 m

Dabartinis oras

Ataskaita buvo paskelbta 9 valandos ir 10 minutes, ne 18:00 UTC
Vėjas 3 kt iš Pietų
Temperatūra 26°C
Drėgmė 74%
Slėgis 1013 hPa
Matomumas 10 km arba daugiau
Išsisklaidę debesys ne aukštis 3000 ft
Mažai debesys ne aukštis 3500 ft, Liūtiniai kamuoliniai debesys.

METAR: FBKE 201800Z 19003KT 9999 SCT030 FEW035CB 26/21 Q1013

Laikas: 05:10 (03:10 UTC)

Prognozė

Ataskaita buvo paskelbta 15 valandos ir 10 minutes, ne 12:00 UTC
Prognozė galioja nuo 20 metu 15 UTC su 20 metu 24 UTC
Vėjas 15 kt iš Pietryčių
Matomumas 10 km arba daugiau
Išsisklaidę debesys ne aukštis 2500 ft
Mažai debesys ne aukštis 3500 ft, Liūtiniai kamuoliniai debesys.
Tikimybė 30% :
Laikinai
nuo 20 metu 16 UTC su 20 metu 20 UTC
perkūnija, lietus

TAF: FBKE 201200Z 2015/2024 13015KT 9999 SCT025 FEW035CB PROB30 TEMPO 2016/2020 TSRA

Orai ataskaitas ir orų prognozės (METAR, TAF).

turimą stotys yra geltonos ir raudonos taškus žemėlapyje.

Perkelti pele per norėdami pamatyti stoties vardą.

Tada spustelėkite, norėdami matyti oro stebėjimo ir prognozės.

Norėdami pakeisti žemėlapį: spustelėkite ant žalios mygtukų su juodo kryžiaus žemyn,; žalią mygtuką su brūkšneliu, jei norite nutolinti; arba žalių rodyklių gretimoms žemėlapius.


METAR-TAF: